Time;durP1;ratioP1;P1;durP2;ratioP2;P2;SDS_P1;SDS_P2;PMS_P1;PMS_P2;Temp;Humidity;BMP_temperature;BMP_pressure;BME280_temperature;BME280_humidity;BME280_pressure;Samples;Min_cycle;Max_cycle;Signal;HPM_P1;HPM_P2
2023/10/15 00:02:01;;;;;;;0.00;0.00;;;9.30;99.90;;;;;;5090336;28;20184;-64
2023/10/15 00:04:26;;;;;;;0.00;0.00;;;9.30;99.90;;;;;;5090607;28;20183;-63
2023/10/15 00:06:52;;;;;;;0.00;0.00;;;9.30;99.90;;;;;;5090465;28;20180;-63
2023/10/15 00:09:17;;;;;;;0.00;0.00;;;9.30;99.90;;;;;;5090557;28;20238;-63
2023/10/15 00:11:43;;;;;;;0.00;0.00;;;9.30;99.90;;;;;;5090247;28;20180;-63
2023/10/15 00:14:08;;;;;;;0.40;0.40;;;9.30;99.90;;;;;;5090196;28;20204;-63
2023/10/15 00:16:34;;;;;;;0.05;0.05;;;9.20;99.90;;;;;;5090611;28;20188;-63
2023/10/15 00:19:09;;;;;;;0.00;0.00;;;9.20;99.90;;;;;;5089760;28;20191;-63
2023/10/15 00:21:35;;;;;;;0.00;0.00;;;9.20;99.90;;;;;;5090053;28;20198;-63
2023/10/15 00:24:01;;;;;;;0.00;0.00;;;9.20;99.90;;;;;;5090237;28;20168;-63
2023/10/15 00:26:27;;;;;;;0.00;0.00;;;9.30;99.90;;;;;;5090357;28;20168;-64
2023/10/15 00:28:55;;;;;;;0.00;0.00;;;9.20;99.90;;;;;;5090345;28;20244;-63
2023/10/15 00:31:21;;;;;;;0.00;0.00;;;9.20;99.90;;;;;;5089704;28;20228;-64
2023/10/15 00:33:46;;;;;;;0.00;0.00;;;9.20;99.90;;;;;;5090082;28;20219;-64
2023/10/15 00:36:13;;;;;;;0.00;0.00;;;9.20;99.90;;;;;;5089909;28;20570;-65
2023/10/15 00:38:46;;;;;;;0.00;0.00;;;9.50;99.90;;;;;;5090014;28;20515;-64
2023/10/15 00:41:15;;;;;;;0.00;0.00;;;9.30;99.90;;;;;;5089954;28;20179;-64
2023/10/15 00:43:59;;;;;;;0.00;0.00;;;9.30;99.90;;;;;;5090150;28;20614;-64
2023/10/15 00:46:28;;;;;;;0.00;0.00;;;9.30;99.90;;;;;;5080564;28;20184;-64
2023/10/15 00:49:02;;;;;;;0.00;0.00;;;9.40;99.90;;;;;;5091838;28;20259;-64
2023/10/15 00:51:27;;;;;;;0.00;0.00;;;9.40;99.90;;;;;;5093567;28;20531;-64
2023/10/15 00:53:55;;;;;;;0.00;0.00;;;9.40;99.90;;;;;;5093551;28;20211;-64
2023/10/15 00:56:26;;;;;;;0.00;0.00;;;9.40;99.90;;;;;;5093927;28;20172;-64
2023/10/15 01:03:57;;;;;;;0.00;0.00;;;9.50;99.90;;;;;;5093300;28;20215;-64
2023/10/15 01:06:35;;;;;;;0.00;0.00;;;9.40;99.90;;;;;;5077335;28;20516;-64
2023/10/15 01:09:08;;;;;;;0.00;0.00;;;9.50;99.90;;;;;;5093836;28;20172;-61
2023/10/15 01:11:44;;;;;;;0.00;0.00;;;9.50;99.90;;;;;;5093482;28;20188;-61
2023/10/15 01:14:13;;;;;;;0.00;0.00;;;9.50;99.90;;;;;;5093270;28;20526;-63
2023/10/15 01:16:40;;;;;;;0.00;0.00;;;9.50;99.90;;;;;;5093129;28;20169;-63
2023/10/15 01:22:03;;;;;;;0.00;0.00;;;9.50;99.90;;;;;;5092500;28;20515;-64
2023/10/15 01:24:33;;;;;;;0.00;0.00;;;9.50;99.90;;;;;;5082003;28;20586;-64
2023/10/15 01:27:03;;;;;;;0.00;0.00;;;9.50;99.90;;;;;;5093000;28;20187;-64
2023/10/15 01:29:33;;;;;;;0.00;0.00;;;9.50;99.90;;;;;;5093145;28;20180;-64
2023/10/15 01:32:03;;;;;;;0.00;0.00;;;9.60;99.90;;;;;;5092951;28;20701;-64
2023/10/15 01:34:31;;;;;;;0.03;0.03;;;9.60;99.90;;;;;;5082782;28;20180;-62
2023/10/15 01:36:57;;;;;;;0.00;0.00;;;9.70;99.90;;;;;;5093084;28;20561;-64
2023/10/15 01:39:38;;;;;;;0.00;0.00;;;9.70;99.90;;;;;;5092487;28;20225;-63
2023/10/15 01:42:06;;;;;;;0.00;0.00;;;9.70;99.90;;;;;;5093041;28;20172;-63
2023/10/15 01:44:32;;;;;;;0.00;0.00;;;9.70;99.90;;;;;;5089174;28;20212;-64
2023/10/15 01:49:32;;;;;;;0.00;0.00;;;9.70;99.90;;;;;;5092933;28;20188;-64
2023/10/15 01:52:28;;;;;;;0.00;0.00;;;9.70;99.90;;;;;;5092725;28;20222;-63
2023/10/15 01:54:54;;;;;;;0.00;0.00;;;9.70;99.90;;;;;;5092433;28;20176;-64
2023/10/15 01:57:22;;;;;;;0.00;0.00;;;9.70;99.90;;;;;;5090928;28;20184;-63
2023/10/15 01:59:47;;;;;;;0.00;0.00;;;9.70;99.90;;;;;;5090134;28;20172;-63
2023/10/15 02:02:15;;;;;;;0.00;0.00;;;9.70;99.90;;;;;;5092273;28;20206;-64
2023/10/15 02:04:44;;;;;;;0.00;0.00;;;9.70;99.90;;;;;;5092078;28;20294;-63
2023/10/15 02:07:15;;;;;;;0.00;0.00;;;9.70;99.90;;;;;;5092573;28;20211;-63
2023/10/15 02:09:43;;;;;;;0.00;0.00;;;9.70;99.90;;;;;;5092290;28;20182;-63
2023/10/15 02:12:19;;;;;;;0.00;0.00;;;9.70;99.90;;;;;;5092205;28;20632;-63
2023/10/15 02:14:47;;;;;;;0.00;0.00;;;9.70;99.90;;;;;;5092134;28;20203;-63
2023/10/15 02:17:13;;;;;;;0.00;0.00;;;9.70;99.90;;;;;;5092141;28;20263;-63
2023/10/15 02:19:40;;;;;;;0.00;0.00;;;9.80;99.90;;;;;;5092212;28;20263;-62
2023/10/15 02:22:07;;;;;;;0.00;0.00;;;9.90;99.90;;;;;;5092304;28;20584;-63
2023/10/15 02:24:34;;;;;;;0.00;0.00;;;9.80;99.90;;;;;;5091934;28;20295;-63
2023/10/15 02:27:06;;;;;;;0.00;0.00;;;9.80;99.90;;;;;;5092378;28;20183;-63
2023/10/15 02:32:07;;;;;;;0.00;0.00;;;9.80;99.90;;;;;;5091922;28;20231;-63
2023/10/15 02:34:40;;;;;;;0.00;0.00;;;9.80;99.90;;;;;;5091792;28;20187;-63
2023/10/15 02:37:10;;;;;;;0.00;0.00;;;9.80;99.90;;;;;;5092246;28;20180;-64
2023/10/15 02:39:39;;;;;;;0.00;0.00;;;9.80;99.90;;;;;;5090028;28;20195;-64
2023/10/15 02:42:04;;;;;;;0.00;0.00;;;9.80;99.90;;;;;;5091663;28;20177;-63
2023/10/15 02:44:32;;;;;;;0.00;0.00;;;9.80;99.90;;;;;;5091471;28;20219;-62
2023/10/15 02:49:53;;;;;;;0.00;0.00;;;9.90;99.90;;;;;;5070028;28;20682;-63
2023/10/15 02:52:23;;;;;;;0.00;0.00;;;9.80;99.90;;;;;;5088217;28;20327;-63
2023/10/15 02:54:49;;;;;;;0.10;0.10;;;9.90;99.90;;;;;;5075346;28;20577;-63
2023/10/15 02:57:15;;;;;;;0.00;0.00;;;9.90;99.90;;;;;;5090097;28;20577;-62
2023/10/15 02:59:51;;;;;;;0.00;0.00;;;9.90;99.90;;;;;;5091653;28;20168;-63
2023/10/15 03:02:18;;;;;;;0.00;0.00;;;9.90;99.90;;;;;;5091590;28;20183;-64
2023/10/15 03:04:49;;;;;;;0.00;0.00;;;9.90;99.90;;;;;;5089880;28;20240;-64
2023/10/15 03:07:30;;;;;;;0.20;0.20;;;9.90;99.90;;;;;;5091348;28;20172;-64
2023/10/15 03:09:59;;;;;;;0.00;0.00;;;9.90;99.90;;;;;;5091103;28;20199;-64
2023/10/15 03:12:25;;;;;;;1.13;0.75;;;9.90;99.90;;;;;;5089660;28;20209;-64
2023/10/15 03:14:54;;;;;;;0.55;0.55;;;9.90;99.90;;;;;;5091456;28;20187;-64
2023/10/15 03:17:29;;;;;;;0.00;0.00;;;9.90;99.90;;;;;;5091172;28;20323;-63
2023/10/15 03:20:10;;;;;;;0.00;0.00;;;9.90;99.90;;;;;;5091351;28;20179;-63
2023/10/15 03:22:38;;;;;;;0.00;0.00;;;9.90;99.90;;;;;;5091131;28;20183;-63
2023/10/15 03:25:06;;;;;;;0.00;0.00;;;9.90;99.90;;;;;;5090948;28;20305;-63
2023/10/15 03:27:32;;;;;;;0.00;0.00;;;9.90;99.90;;;;;;5091150;28;20172;-63
2023/10/15 03:29:58;;;;;;;0.00;0.00;;;9.90;99.90;;;;;;5090997;28;20259;-64
2023/10/15 03:32:31;;;;;;;0.00;0.00;;;9.90;99.90;;;;;;5089468;28;20338;-63
2023/10/15 03:35:05;;;;;;;0.00;0.00;;;9.90;99.90;;;;;;5091175;28;20178;-63
2023/10/15 03:37:31;;;;;;;0.00;0.00;;;9.90;99.90;;;;;;5090955;28;20176;-64
2023/10/15 03:39:57;;;;;;;0.00;0.00;;;9.90;99.90;;;;;;5091012;28;20183;-64
2023/10/15 03:42:29;;;;;;;0.00;0.00;;;9.90;99.90;;;;;;5089937;28;20172;-63
2023/10/15 03:45:00;;;;;;;0.00;0.00;;;9.90;99.90;;;;;;5089917;28;20570;-64
2023/10/15 03:47:26;;;;;;;0.00;0.00;;;9.90;99.90;;;;;;5090731;28;20190;-64
2023/10/15 03:49:52;;;;;;;0.00;0.00;;;9.90;99.90;;;;;;5090671;28;20187;-64
2023/10/15 03:52:21;;;;;;;0.57;0.57;;;10.00;99.90;;;;;;5090408;28;20179;-64
2023/10/15 03:54:50;;;;;;;0.00;0.00;;;10.00;99.90;;;;;;5090372;28;20176;-63
2023/10/15 03:57:17;;;;;;;0.00;0.00;;;9.90;99.90;;;;;;5090649;28;20212;-64
2023/10/15 03:59:45;;;;;;;0.00;0.00;;;9.90;99.90;;;;;;5090299;28;20176;-64
2023/10/15 04:02:27;;;;;;;0.00;0.00;;;10.00;99.90;;;;;;5084593;28;20176;-65
2023/10/15 04:05:12;;;;;;;0.00;0.00;;;10.00;99.90;;;;;;5090102;28;20291;-63
2023/10/15 04:07:40;;;;;;;0.00;0.00;;;10.00;99.90;;;;;;5090804;28;20172;-64
2023/10/15 04:10:08;;;;;;;0.00;0.00;;;9.90;99.90;;;;;;5090355;28;20176;-63
2023/10/15 04:12:35;;;;;;;0.00;0.00;;;9.90;99.90;;;;;;5089710;28;20184;-63
2023/10/15 04:15:13;;;;;;;0.00;0.00;;;10.00;99.90;;;;;;5089978;28;20229;-63
2023/10/15 04:17:39;;;;;;;0.00;0.00;;;10.00;99.90;;;;;;5090409;28;20183;-64
2023/10/15 04:20:05;;;;;;;0.00;0.00;;;10.00;99.90;;;;;;5090589;28;20183;-62
2023/10/15 04:22:36;;;;;;;0.00;0.00;;;10.00;99.90;;;;;;5091095;28;20218;-62
2023/10/15 04:25:06;;;;;;;0.00;0.00;;;10.00;99.90;;;;;;5094282;28;20215;-63
2023/10/15 04:27:34;;;;;;;0.00;0.00;;;10.00;99.90;;;;;;5093212;28;20184;-63
2023/10/15 04:30:00;;;;;;;0.00;0.00;;;10.10;99.90;;;;;;5094442;28;20534;-63
2023/10/15 04:32:29;;;;;;;0.00;0.00;;;10.10;99.90;;;;;;5094114;28;20302;-63
2023/10/15 04:35:11;;;;;;;0.00;0.00;;;10.10;99.90;;;;;;5094828;28;20718;-63
2023/10/15 04:37:37;;;;;;;0.00;0.00;;;10.10;99.90;;;;;;5094255;28;20180;-62
2023/10/15 04:40:11;;;;;;;0.00;0.00;;;10.20;99.90;;;;;;5093942;28;20192;-62
2023/10/15 04:42:48;;;;;;;0.00;0.00;;;10.20;99.90;;;;;;5094199;28;20207;-62
2023/10/15 04:45:20;;;;;;;0.00;0.00;;;10.20;99.90;;;;;;5093351;28;20243;-62
2023/10/15 04:48:00;;;;;;;0.00;0.00;;;10.20;99.90;;;;;;5093810;28;20180;-62
2023/10/15 04:50:36;;;;;;;0.00;0.00;;;10.20;99.90;;;;;;5093589;28;20285;-62
2023/10/15 04:55:47;;;;;;;0.00;0.00;;;10.10;99.90;;;;;;5093313;28;20176;-64
2023/10/15 04:58:13;;;;;;;0.00;0.00;;;10.00;99.90;;;;;;5092969;28;20733;-63
2023/10/15 05:00:47;;;;;;;0.00;0.00;;;10.00;99.90;;;;;;5085499;28;20268;-63
2023/10/15 05:03:14;;;;;;;0.00;0.00;;;9.90;99.90;;;;;;5089560;28;20187;-63
2023/10/15 05:05:43;;;;;;;0.00;0.00;;;9.90;99.90;;;;;;5092508;28;20218;-64
2023/10/15 05:08:12;;;;;;;0.00;0.00;;;9.80;99.90;;;;;;5093319;28;20222;-64
2023/10/15 05:10:50;;;;;;;0.00;0.00;;;9.80;99.90;;;;;;5093244;28;20211;-65
2023/10/15 05:13:16;;;;;;;0.00;0.00;;;9.70;99.90;;;;;;5091926;28;20180;-63
2023/10/15 05:15:44;;;;;;;0.00;0.00;;;9.70;99.90;;;;;;5093378;28;20176;-63
2023/10/15 05:18:10;;;;;;;0.20;0.20;;;9.70;99.90;;;;;;5091506;28;20227;-63
2023/10/15 05:20:39;;;;;;;0.00;0.00;;;9.70;99.90;;;;;;5091308;28;20858;-63
2023/10/15 05:23:05;;;;;;;0.00;0.00;;;9.60;99.90;;;;;;5092240;28;20184;-62
2023/10/15 05:25:30;;;;;;;0.00;0.00;;;9.60;99.90;;;;;;5094224;28;20218;-63
2023/10/15 05:27:59;;;;;;;0.00;0.00;;;9.60;99.90;;;;;;5094705;28;20172;-63
2023/10/15 05:30:26;;;;;;;0.00;0.00;;;9.60;99.90;;;;;;5091353;28;20261;-62
2023/10/15 05:32:52;;;;;;;0.00;0.00;;;9.60;99.90;;;;;;5093399;28;20237;-63
2023/10/15 05:35:17;;;;;;;0.00;0.00;;;9.60;99.90;;;;;;5091927;28;20215;-63
2023/10/15 05:37:44;;;;;;;0.00;0.00;;;9.60;99.90;;;;;;5095474;28;20175;-62
2023/10/15 05:40:12;;;;;;;0.00;0.00;;;9.60;99.90;;;;;;5095004;28;20179;-63
2023/10/15 05:42:38;;;;;;;0.00;0.00;;;9.60;99.90;;;;;;5095241;28;20179;-63
2023/10/15 05:45:07;;;;;;;0.00;0.00;;;9.60;99.90;;;;;;5095158;28;20663;-63
2023/10/15 05:47:34;;;;;;;0.00;0.00;;;9.60;99.90;;;;;;5092552;28;20180;-63
2023/10/15 05:50:00;;;;;;;0.00;0.00;;;9.60;99.90;;;;;;5092630;28;20188;-63
2023/10/15 05:52:25;;;;;;;0.00;0.00;;;9.60;99.90;;;;;;5092078;28;20186;-63
2023/10/15 05:54:53;;;;;;;0.00;0.00;;;9.70;99.90;;;;;;5091415;28;20188;-63
2023/10/15 05:57:21;;;;;;;0.00;0.00;;;9.70;99.90;;;;;;5092035;28;20191;-62
2023/10/15 05:59:49;;;;;;;0.00;0.00;;;9.60;99.90;;;;;;5083229;28;20180;-62
2023/10/15 06:02:14;;;;;;;0.00;0.00;;;9.60;99.90;;;;;;5091378;28;20199;-62
2023/10/15 06:04:41;;;;;;;0.00;0.00;;;9.50;99.90;;;;;;5092385;28;20691;-64
2023/10/15 06:07:07;;;;;;;0.00;0.00;;;9.50;99.90;;;;;;5091743;28;20180;-63
2023/10/15 06:09:37;;;;;;;0.00;0.00;;;9.50;99.90;;;;;;5089596;28;20168;-62
2023/10/15 06:12:03;;;;;;;0.00;0.00;;;9.50;99.90;;;;;;5090399;28;20207;-63
2023/10/15 06:14:28;;;;;;;0.00;0.00;;;9.50;99.90;;;;;;5092401;28;20176;-62
2023/10/15 06:16:58;;;;;;;0.00;0.00;;;9.50;99.90;;;;;;5089374;28;20184;-64
2023/10/15 06:19:24;;;;;;;0.00;0.00;;;9.80;99.90;;;;;;5091608;28;20268;-64
2023/10/15 06:21:50;;;;;;;0.00;0.00;;;9.80;99.90;;;;;;5092006;28;20643;-66
2023/10/15 06:24:16;;;;;;;0.00;0.00;;;9.80;99.90;;;;;;5090261;28;20218;-64
2023/10/15 06:26:41;;;;;;;0.00;0.00;;;9.80;99.90;;;;;;5091022;28;20176;-64
2023/10/15 06:29:09;;;;;;;0.00;0.00;;;9.90;99.90;;;;;;5091210;28;20176;-65
2023/10/15 06:31:39;;;;;;;0.00;0.00;;;9.80;99.90;;;;;;5091892;28;20291;-66
2023/10/15 06:34:06;;;;;;;0.00;0.00;;;9.80;99.90;;;;;;5091872;28;20184;-66
2023/10/15 06:36:32;;;;;;;0.00;0.00;;;9.90;99.90;;;;;;5090823;28;20181;-68
2023/10/15 06:38:58;;;;;;;0.00;0.00;;;9.90;99.90;;;;;;5091867;28;20249;-64
2023/10/15 06:41:26;;;;;;;0.00;0.00;;;9.90;99.90;;;;;;5091971;28;20698;-67
2023/10/15 06:43:51;;;;;;;0.00;0.00;;;9.90;99.90;;;;;;5091268;28;20211;-65
2023/10/15 06:46:17;;;;;;;0.00;0.00;;;9.90;99.90;;;;;;5091323;28;20180;-63
2023/10/15 06:48:43;;;;;;;0.00;0.00;;;9.90;99.90;;;;;;5091782;28;20180;-64
2023/10/15 06:51:09;;;;;;;0.00;0.00;;;9.90;99.90;;;;;;5091529;28;20643;-62
2023/10/15 06:53:34;;;;;;;0.10;0.10;;;9.90;99.90;;;;;;5091177;28;20229;-66
2023/10/15 06:56:01;;;;;;;0.00;0.00;;;9.90;99.90;;;;;;5091709;28;20237;-64
2023/10/15 06:58:28;;;;;;;0.00;0.00;;;10.00;99.90;;;;;;5090490;28;20181;-65
2023/10/15 07:00:58;;;;;;;0.00;0.00;;;10.00;99.90;;;;;;5091569;28;20714;-66
2023/10/15 07:03:23;;;;;;;0.00;0.00;;;10.00;99.90;;;;;;5090732;28;20188;-65
2023/10/15 07:05:49;;;;;;;0.00;0.00;;;10.00;99.90;;;;;;5091105;28;20208;-63
2023/10/15 07:08:15;;;;;;;0.00;0.00;;;10.10;99.90;;;;;;5091098;28;20180;-64
2023/10/15 07:10:41;;;;;;;0.55;0.47;;;10.10;99.90;;;;;;5091118;28;20180;-64
2023/10/15 07:13:06;;;;;;;0.00;0.00;;;10.10;99.90;;;;;;5091608;28;20176;-64
2023/10/15 07:15:35;;;;;;;0.00;0.00;;;10.10;99.90;;;;;;5091190;28;20180;-64
2023/10/15 07:18:01;;;;;;;0.00;0.00;;;10.20;99.90;;;;;;5091444;28;20175;-63
2023/10/15 07:20:29;;;;;;;0.00;0.00;;;10.20;99.90;;;;;;5090761;28;20172;-63
2023/10/15 07:22:56;;;;;;;0.00;0.00;;;10.30;99.90;;;;;;5091224;28;20240;-64
2023/10/15 07:25:24;;;;;;;0.00;0.00;;;10.30;99.90;;;;;;5090717;28;20738;-63
2023/10/15 07:27:50;;;;;;;0.00;0.00;;;10.40;99.90;;;;;;5091082;28;20184;-64
2023/10/15 07:30:19;;;;;;;0.00;0.00;;;10.40;99.90;;;;;;5090459;28;20176;-64
2023/10/15 07:32:45;;;;;;;0.00;0.00;;;10.40;99.90;;;;;;5090554;28;20212;-60
2023/10/15 07:35:12;;;;;;;1.45;1.27;;;10.60;99.90;;;;;;5090767;28;20187;-62
2023/10/15 07:37:46;;;;;;;0.10;0.10;;;11.20;99.90;;;;;;5090348;28;20187;-60
2023/10/15 07:40:19;;;;;;;0.00;0.00;;;11.40;99.90;;;;;;5091305;28;20196;-61
2023/10/15 07:42:49;;;;;;;0.00;0.00;;;11.50;99.90;;;;;;5091262;28;20168;-61
2023/10/15 07:45:16;;;;;;;0.00;0.00;;;11.50;99.90;;;;;;5090502;28;20214;-61
2023/10/15 07:47:42;;;;;;;0.00;0.00;;;11.70;99.90;;;;;;5087041;28;20188;-61
2023/10/15 07:50:09;;;;;;;0.00;0.00;;;11.60;99.90;;;;;;5086049;28;20526;-61
2023/10/15 07:52:37;;;;;;;0.00;0.00;;;11.50;99.90;;;;;;5090051;28;20183;-60
2023/10/15 07:55:05;;;;;;;0.00;0.00;;;11.30;99.90;;;;;;5089908;28;20172;-65
2023/10/15 07:57:31;;;;;;;0.00;0.00;;;11.10;99.90;;;;;;5090010;28;20271;-64
2023/10/15 07:59:58;;;;;;;0.00;0.00;;;11.00;99.90;;;;;;5089964;28;20670;-67
2023/10/15 08:02:24;;;;;;;0.00;0.00;;;10.90;99.90;;;;;;5090584;28;20253;-65
2023/10/15 08:04:56;;;;;;;0.00;0.00;;;10.80;99.90;;;;;;5090530;28;20298;-64
2023/10/15 08:07:23;;;;;;;0.00;0.00;;;10.70;99.90;;;;;;5074475;28;20172;-64
2023/10/15 08:09:51;;;;;;;0.00;0.00;;;10.90;99.90;;;;;;5089576;28;20212;-62
2023/10/15 08:12:17;;;;;;;0.00;0.00;;;11.50;99.90;;;;;;5089584;28;20510;-65
2023/10/15 08:14:44;;;;;;;0.00;0.00;;;12.50;99.90;;;;;;5090438;28;20236;-66
2023/10/15 08:17:11;;;;;;;0.00;0.00;;;13.10;99.90;;;;;;5089992;28;20176;-66
2023/10/15 08:19:37;;;;;;;0.00;0.00;;;13.20;99.90;;;;;;5090134;28;20715;-65
2023/10/15 08:22:02;;;;;;;0.00;0.00;;;13.10;99.90;;;;;;5090106;28;20172;-67
2023/10/15 08:24:28;;;;;;;0.43;0.43;;;12.90;99.90;;;;;;5090156;28;20564;-67
2023/10/15 08:26:54;;;;;;;0.00;0.00;;;12.70;99.90;;;;;;5089801;28;20488;-66
2023/10/15 08:29:20;;;;;;;0.00;0.00;;;12.60;99.90;;;;;;5089901;28;20195;-67
2023/10/15 08:31:46;;;;;;;0.00;0.00;;;12.70;99.90;;;;;;5089683;28;20288;-65
2023/10/15 08:34:12;;;;;;;0.10;0.10;;;13.00;99.90;;;;;;5088034;28;20190;-64
2023/10/15 08:36:38;;;;;;;0.00;0.00;;;13.30;99.90;;;;;;5089080;28;20178;-66
2023/10/15 08:39:06;;;;;;;0.00;0.00;;;13.70;99.90;;;;;;5088860;28;20549;-65
2023/10/15 08:41:38;;;;;;;0.00;0.00;;;14.00;99.90;;;;;;5087936;28;20172;-64
2023/10/15 08:44:08;;;;;;;0.00;0.00;;;14.00;99.90;;;;;;5089938;28;20208;-64
2023/10/15 08:46:37;;;;;;;0.05;0.05;;;14.10;99.90;;;;;;5089487;28;20187;-65
2023/10/15 08:49:07;;;;;;;0.00;0.00;;;14.50;99.90;;;;;;5089067;28;20177;-64
2023/10/15 08:51:34;;;;;;;0.00;0.00;;;14.70;99.90;;;;;;5089803;28;20226;-64
2023/10/15 08:54:02;;;;;;;0.05;0.05;;;15.00;99.90;;;;;;5090071;28;20234;-63
2023/10/15 08:56:33;;;;;;;0.10;0.10;;;15.20;99.90;;;;;;5089802;28;20705;-64
2023/10/15 08:58:59;;;;;;;0.00;0.00;;;14.90;99.90;;;;;;5083664;28;20587;-63
2023/10/15 09:01:25;;;;;;;0.28;0.28;;;14.60;99.90;;;;;;5089684;28;20255;-61
2023/10/15 09:03:53;;;;;;;0.28;0.28;;;14.50;99.90;;;;;;5089804;28;20266;-62
2023/10/15 09:06:19;;;;;;;0.30;0.30;;;15.10;99.90;;;;;;5090110;28;20184;-64
2023/10/15 09:08:45;;;;;;;0.10;0.10;;;15.40;99.90;;;;;;5089100;28;20176;-63
2023/10/15 09:11:11;;;;;;;0.10;0.10;;;15.80;99.90;;;;;;5091869;28;20522;-64
2023/10/15 09:13:37;;;;;;;0.00;0.00;;;15.90;99.90;;;;;;5092006;28;20183;-63
2023/10/15 09:16:08;;;;;;;0.00;0.00;;;15.90;99.30;;;;;;5093635;28;20180;-63
2023/10/15 09:18:37;;;;;;;0.00;0.00;;;15.90;99.90;;;;;;5093384;28;20184;-62
2023/10/15 09:21:04;;;;;;;0.00;0.00;;;16.10;99.80;;;;;;5093309;28;20179;-62
2023/10/15 09:23:37;;;;;;;0.00;0.00;;;16.40;99.50;;;;;;5093249;28;20203;-62
2023/10/15 09:26:10;;;;;;;0.00;0.00;;;16.40;98.40;;;;;;5093650;28;20198;-62
2023/10/15 09:28:36;;;;;;;0.00;0.00;;;16.20;97.80;;;;;;5093308;28;20176;-62
2023/10/15 09:31:06;;;;;;;0.00;0.00;;;16.30;97.80;;;;;;5093503;28;20176;-62
2023/10/15 09:33:33;;;;;;;0.00;0.00;;;16.50;97.10;;;;;;5090944;28;20228;-63
2023/10/15 09:35:59;;;;;;;0.00;0.00;;;17.00;97.70;;;;;;5093329;28;20180;-63
2023/10/15 09:38:25;;;;;;;0.00;0.00;;;17.20;95.20;;;;;;5093074;28;20718;-64
2023/10/15 09:40:55;;;;;;;0.00;0.00;;;16.90;93.40;;;;;;5093249;28;20172;-63
2023/10/15 09:43:23;;;;;;;0.00;0.00;;;16.20;93.30;;;;;;5092779;28;20207;-64
2023/10/15 09:45:50;;;;;;;0.00;0.00;;;15.40;94.60;;;;;;5092855;28;20214;-63
2023/10/15 09:48:16;;;;;;;0.00;0.00;;;14.70;94.50;;;;;;5092523;28;20533;-63
2023/10/15 09:50:44;;;;;;;0.00;0.00;;;14.10;95.50;;;;;;5092626;28;20604;-67
2023/10/15 09:53:12;;;;;;;0.00;0.00;;;13.80;96.20;;;;;;5091767;28;20181;-66
2023/10/15 09:55:40;;;;;;;0.00;0.00;;;13.70;96.90;;;;;;5092138;28;20191;-69
2023/10/15 09:58:06;;;;;;;0.00;0.00;;;13.70;96.80;;;;;;5091724;28;20179;-69
2023/10/15 10:03:37;;;;;;;0.00;0.00;;;14.10;95.60;;;;;;5091972;28;20176;-68
2023/10/15 10:06:23;;;;;;;0.00;0.00;;;14.00;95.80;;;;;;5092632;28;20190;-69
2023/10/15 10:09:16;;;;;;;0.00;0.00;;;13.90;96.00;;;;;;5092671;28;20188;-68
2023/10/15 10:12:06;;;;;;;0.00;0.00;;;13.80;97.00;;;;;;5090717;28;20172;-71
2023/10/15 10:15:00;;;;;;;0.00;0.00;;;13.50;95.90;;;;;;5092373;28;20185;-71
2023/10/15 10:17:28;;;;;;;0.00;0.00;;;13.40;96.60;;;;;;5092668;28;20532;-69
2023/10/15 10:19:54;;;;;;;0.00;0.00;;;13.30;96.20;;;;;;5091167;28;20180;-67
2023/10/15 10:22:29;;;;;;;0.00;0.00;;;13.20;96.50;;;;;;5092281;28;20259;-69
2023/10/15 10:25:00;;;;;;;0.00;0.00;;;13.10;97.20;;;;;;5091064;28;20306;-63
2023/10/15 10:27:26;;;;;;;0.00;0.00;;;13.00;96.80;;;;;;5092315;28;20200;-66
2023/10/15 10:30:27;;;;;;;0.00;0.00;;;13.00;96.90;;;;;;5091789;28;20180;-68
2023/10/15 10:32:56;;;;;;;0.00;0.00;;;13.00;96.40;;;;;;5091987;28;21015;-71
2023/10/15 10:35:26;;;;;;;0.00;0.00;;;13.00;96.60;;;;;;5091941;28;20180;-68
2023/10/15 10:38:11;;;;;;;0.00;0.00;;;12.90;96.40;;;;;;5091861;28;20179;-66
2023/10/15 10:41:03;;;;;;;0.00;0.00;;;12.90;96.00;;;;;;5091810;28;20172;-67
2023/10/15 10:43:28;;;;;;;0.10;0.10;;;12.90;95.90;;;;;;5090389;28;20191;-68
2023/10/15 10:46:00;;;;;;;0.00;0.00;;;12.90;95.70;;;;;;5091588;28;20208;-71
2023/10/15 10:48:28;;;;;;;0.00;0.00;;;13.00;95.40;;;;;;5091576;28;20183;-68
2023/10/15 10:51:15;;;;;;;0.00;0.00;;;13.00;94.40;;;;;;5091879;28;20245;-72
2023/10/15 10:54:16;;;;;;;0.00;0.00;;;13.00;94.40;;;;;;5090165;28;20214;-70
2023/10/15 10:56:41;;;;;;;0.20;0.20;;;12.90;94.40;;;;;;5090594;28;20172;-65
2023/10/15 10:59:07;;;;;;;0.00;0.00;;;12.80;93.90;;;;;;5090193;28;20542;-68
2023/10/15 11:01:37;;;;;;;0.00;0.00;;;12.80;94.40;;;;;;5090949;28;20543;-66
2023/10/15 11:04:03;;;;;;;0.00;0.00;;;12.80;94.30;;;;;;5091263;28;20215;-68
2023/10/15 11:06:29;;;;;;;0.00;0.00;;;12.80;94.90;;;;;;5089975;28;20179;-64
2023/10/15 11:08:54;;;;;;;0.00;0.00;;;12.90;94.30;;;;;;5091601;28;20191;-67
2023/10/15 11:11:20;;;;;;;0.00;0.00;;;12.90;94.00;;;;;;5091385;28;20877;-67
2023/10/15 11:13:49;;;;;;;0.00;0.00;;;13.10;93.90;;;;;;5091213;28;20180;-67
2023/10/15 11:16:15;;;;;;;0.00;0.00;;;13.20;93.40;;;;;;5091040;28;20511;-68
2023/10/15 11:18:42;;;;;;;0.00;0.00;;;13.70;93.00;;;;;;5091281;28;20496;-71
2023/10/15 11:21:09;;;;;;;0.00;0.00;;;14.20;91.40;;;;;;5091490;28;20184;-67
2023/10/15 11:23:34;;;;;;;0.00;0.00;;;14.20;85.70;;;;;;5090979;28;20172;-66
2023/10/15 11:26:00;;;;;;;0.00;0.00;;;14.30;86.50;;;;;;5089689;28;20214;-67
2023/10/15 11:28:26;;;;;;;0.00;0.00;;;14.20;86.40;;;;;;5089753;28;20176;-65
2023/10/15 11:30:53;;;;;;;0.00;0.00;;;14.10;87.30;;;;;;5091113;28;20255;-64
2023/10/15 11:33:19;;;;;;;0.00;0.00;;;14.40;86.60;;;;;;5090411;28;20224;-67
2023/10/15 11:35:54;;;;;;;0.00;0.00;;;14.70;83.90;;;;;;5091004;28;20184;-63
2023/10/15 11:38:20;;;;;;;0.00;0.00;;;15.10;84.40;;;;;;5089961;28;20183;-65
2023/10/15 11:40:46;;;;;;;0.00;0.00;;;15.30;84.10;;;;;;5090973;28;20833;-65
2023/10/15 11:43:17;;;;;;;0.00;0.00;;;15.50;82.20;;;;;;5091512;28;20338;-64
2023/10/15 11:45:43;;;;;;;0.00;0.00;;;15.60;82.20;;;;;;5094241;28;20215;-72
2023/10/15 11:48:11;;;;;;;0.00;0.00;;;15.60;80.60;;;;;;5102367;28;20183;-65
2023/10/15 11:50:40;;;;;;;0.00;0.00;;;15.50;80.20;;;;;;5102949;28;20175;-66
2023/10/15 11:53:26;;;;;;;0.00;0.00;;;15.40;80.40;;;;;;5097402;28;20172;-65
2023/10/15 11:55:54;;;;;;;0.00;0.00;;;15.30;80.10;;;;;;5095542;28;20192;-67
2023/10/15 11:58:23;;;;;;;0.00;0.00;;;15.20;78.90;;;;;;5097268;28;20184;-64
2023/10/15 12:00:51;;;;;;;0.00;0.00;;;15.10;78.90;;;;;;5091279;28;20172;-67
2023/10/15 12:03:18;;;;;;;0.00;0.00;;;14.80;78.80;;;;;;5092758;28;20236;-62
2023/10/15 12:05:44;;;;;;;0.00;0.00;;;14.50;80.60;;;;;;5096105;28;20277;-64
2023/10/15 12:08:13;;;;;;;0.00;0.00;;;14.40;80.50;;;;;;5094820;28;20225;-64
2023/10/15 12:10:45;;;;;;;0.00;0.00;;;14.40;81.00;;;;;;5095170;28;20655;-63
2023/10/15 12:13:12;;;;;;;0.00;0.00;;;14.40;81.70;;;;;;5096340;28;20179;-62
2023/10/15 12:15:37;;;;;;;0.08;0.08;;;14.50;81.80;;;;;;5093742;28;20666;-61
2023/10/15 12:18:04;;;;;;;0.00;0.00;;;14.40;82.10;;;;;;5090703;28;20180;-61
2023/10/15 12:20:29;;;;;;;0.00;0.00;;;14.50;83.00;;;;;;5090583;28;20176;-63
2023/10/15 12:22:55;;;;;;;0.00;0.00;;;14.80;82.30;;;;;;5085028;28;20540;-65
2023/10/15 12:25:21;;;;;;;0.00;0.00;;;15.10;83.20;;;;;;5090839;28;20302;-64
2023/10/15 12:27:47;;;;;;;0.00;0.00;;;15.00;80.00;;;;;;5088969;28;20179;-61
2023/10/15 12:30:23;;;;;;;0.00;0.00;;;15.00;79.80;;;;;;5090963;28;20192;-61
2023/10/15 12:32:53;;;;;;;0.00;0.00;;;14.80;78.20;;;;;;5090345;28;20555;-62
2023/10/15 12:35:19;;;;;;;0.10;0.10;;;14.50;78.50;;;;;;5090466;28;20184;-61
2023/10/15 12:37:46;;;;;;;0.00;0.00;;;14.40;78.80;;;;;;5090530;28;20180;-59
2023/10/15 12:40:12;;;;;;;0.00;0.00;;;14.20;79.60;;;;;;5090595;28;20643;-62
2023/10/15 12:42:39;;;;;;;0.00;0.00;;;14.20;80.30;;;;;;5090139;28;20184;-60
2023/10/15 12:45:09;;;;;;;0.00;0.00;;;14.20;81.20;;;;;;5094165;28;20219;-61
2023/10/15 12:47:36;;;;;;;0.00;0.00;;;14.30;80.60;;;;;;5094182;28;20183;-63
2023/10/15 12:50:04;;;;;;;0.00;0.00;;;14.30;79.90;;;;;;5094264;28;20176;-63
2023/10/15 12:52:29;;;;;;;0.22;0.22;;;14.20;79.60;;;;;;5093665;28;20188;-63
2023/10/15 12:54:55;;;;;;;0.00;0.00;;;14.10;79.90;;;;;;5094042;28;20187;-61
2023/10/15 12:57:22;;;;;;;0.00;0.00;;;13.90;81.20;;;;;;5094225;28;20173;-63
2023/10/15 12:59:47;;;;;;;0.00;0.00;;;13.90;81.10;;;;;;5094319;28;20259;-64
2023/10/15 13:02:13;;;;;;;0.00;0.00;;;13.80;80.70;;;;;;5093260;28;20263;-63
2023/10/15 13:04:39;;;;;;;0.00;0.00;;;13.80;82.30;;;;;;5093207;28;20250;-61
2023/10/15 13:07:05;;;;;;;0.00;0.00;;;13.80;82.90;;;;;;5093973;28;20204;-61
2023/10/15 13:09:32;;;;;;;0.00;0.00;;;13.80;82.80;;;;;;5094284;28;20263;-61
2023/10/15 13:11:58;;;;;;;0.43;0.43;;;13.80;80.80;;;;;;5073860;28;20684;-62
2023/10/15 13:14:24;;;;;;;0.00;0.00;;;13.70;80.50;;;;;;5073933;28;20177;-63
2023/10/15 13:16:50;;;;;;;0.10;0.10;;;13.90;82.30;;;;;;5074203;28;20634;-62
2023/10/15 13:19:16;;;;;;;0.00;0.00;;;14.00;81.20;;;;;;5093955;28;20282;-60
2023/10/15 13:21:42;;;;;;;0.00;0.00;;;14.10;80.20;;;;;;5094152;28;20236;-62